Time;durP1;ratioP1;P1;durP2;ratioP2;P2;SDS_P1;SDS_P2;PMS_P1;PMS_P2;Temp;Humidity;BMP_temperature;BMP_pressure;BME280_temperature;BME280_humidity;BME280_pressure;Samples;Min_cycle;Max_cycle;Signal;HPM_P1;HPM_P2
2022/09/23 00:00:48;;;;;;;36.88;19.35;;;9.80;99.90;;;;;;4993856;28;20070;-75
2022/09/23 00:03:15;;;;;;;35.70;19.52;;;9.80;99.90;;;;;;4994996;28;20095;-78
2022/09/23 00:05:41;;;;;;;35.97;20.25;;;9.80;99.90;;;;;;4994502;28;20054;-76
2022/09/23 00:08:10;;;;;;;40.15;20.65;;;9.80;99.90;;;;;;4994475;28;20482;-79
2022/09/23 00:10:38;;;;;;;36.22;19.88;;;9.80;99.90;;;;;;4994845;28;20052;-76
2022/09/23 00:13:04;;;;;;;36.28;19.65;;;9.70;99.90;;;;;;4994762;28;20077;-76
2022/09/23 00:15:32;;;;;;;32.40;19.17;;;9.70;99.90;;;;;;4977548;28;20054;-80
2022/09/23 00:17:58;;;;;;;33.08;19.98;;;9.70;99.90;;;;;;4994789;28;20394;-76
2022/09/23 00:20:24;;;;;;;34.97;19.15;;;9.60;99.90;;;;;;4993572;28;20046;-74
2022/09/23 00:22:50;;;;;;;35.22;20.30;;;9.60;99.90;;;;;;4961273;28;20057;-75
2022/09/23 00:25:15;;;;;;;39.17;18.80;;;9.60;99.90;;;;;;4993231;28;20085;-74
2022/09/23 00:27:41;;;;;;;32.95;19.52;;;9.60;99.90;;;;;;4993308;28;20085;-76
2022/09/23 00:30:09;;;;;;;36.28;20.65;;;9.60;99.90;;;;;;4993482;28;20046;-77
2022/09/23 00:32:35;;;;;;;32.67;19.75;;;9.60;99.90;;;;;;4976990;28;20481;-76
2022/09/23 00:35:02;;;;;;;37.22;20.75;;;9.60;99.90;;;;;;4995137;28;20049;-75
2022/09/23 00:37:29;;;;;;;34.53;20.02;;;9.50;99.90;;;;;;4994174;28;20098;-75
2022/09/23 00:39:55;;;;;;;33.40;19.52;;;9.50;99.90;;;;;;4993694;28;20380;-76
2022/09/23 00:42:23;;;;;;;36.42;19.45;;;9.50;99.90;;;;;;4992867;28;20572;-76
2022/09/23 00:44:58;;;;;;;39.08;20.63;;;9.50;99.90;;;;;;4992924;28;20205;-77
2022/09/23 00:47:46;;;;;;;34.92;19.60;;;9.50;99.90;;;;;;4994447;28;20050;-77
2022/09/23 00:50:34;;;;;;;34.17;20.58;;;9.40;99.90;;;;;;4977655;28;20046;-75
2022/09/23 00:53:03;;;;;;;36.58;20.85;;;9.40;99.90;;;;;;4993426;28;20487;-75
2022/09/23 00:55:35;;;;;;;35.90;20.65;;;9.30;99.90;;;;;;4993812;28;20073;-76
2022/09/23 00:58:04;;;;;;;36.53;19.55;;;9.30;99.90;;;;;;4992820;28;20046;-75
2022/09/23 01:00:31;;;;;;;35.67;20.45;;;9.30;99.90;;;;;;4992640;28;20046;-75
2022/09/23 01:02:56;;;;;;;33.88;20.08;;;9.30;99.90;;;;;;4993858;28;20117;-76
2022/09/23 01:05:22;;;;;;;33.78;19.13;;;9.20;99.90;;;;;;4992557;28;20170;-75
2022/09/23 01:07:49;;;;;;;37.75;20.98;;;9.20;99.90;;;;;;4993595;28;20050;-76
2022/09/23 01:10:15;;;;;;;38.63;20.73;;;9.20;99.90;;;;;;4993019;28;20050;-75
2022/09/23 01:12:57;;;;;;;41.72;20.77;;;9.10;99.90;;;;;;4993697;28;20143;-76
2022/09/23 01:15:46;;;;;;;35.38;20.80;;;9.10;99.90;;;;;;4994390;28;20053;-76
2022/09/23 01:18:33;;;;;;;38.30;21.10;;;9.10;99.90;;;;;;4994472;28;20053;-77
2022/09/23 01:21:17;;;;;;;39.28;21.25;;;9.10;99.90;;;;;;4993624;28;20164;-76
2022/09/23 01:23:52;;;;;;;39.58;21.85;;;9.10;99.90;;;;;;4993768;28;20423;-75
2022/09/23 01:26:30;;;;;;;39.50;21.58;;;9.00;99.90;;;;;;4993952;28;20050;-81
2022/09/23 01:29:01;;;;;;;36.72;20.77;;;9.00;99.90;;;;;;4993309;28;20580;-74
2022/09/23 01:31:41;;;;;;;36.58;20.67;;;9.00;99.90;;;;;;4992410;28;20096;-75
2022/09/23 01:34:13;;;;;;;35.92;20.52;;;9.00;99.90;;;;;;4994113;28;20543;-75
2022/09/23 01:36:52;;;;;;;38.72;21.80;;;8.90;99.90;;;;;;4993408;28;20057;-75
2022/09/23 01:39:34;;;;;;;38.63;20.73;;;8.90;99.90;;;;;;4992021;28;20051;-75
2022/09/23 01:42:12;;;;;;;39.17;20.73;;;8.90;99.90;;;;;;4993278;28;20058;-76
2022/09/23 01:45:15;;;;;;;42.47;21.05;;;8.90;99.90;;;;;;4992348;28;20050;-75
2022/09/23 01:48:09;;;;;;;38.75;21.38;;;8.80;99.90;;;;;;4992355;28;20046;-75
2022/09/23 01:50:56;;;;;;;39.85;20.70;;;8.80;99.90;;;;;;4993252;28;20070;-77
2022/09/23 01:53:37;;;;;;;35.17;20.55;;;8.80;99.90;;;;;;4993299;28;20362;-75
2022/09/23 01:56:29;;;;;;;41.05;21.80;;;8.80;99.90;;;;;;4992556;28;20061;-75
2022/09/23 01:59:08;;;;;;;37.45;21.30;;;8.80;99.90;;;;;;4992656;28;20094;-76
2022/09/23 02:01:53;;;;;;;38.33;22.05;;;8.70;99.90;;;;;;4992240;28;20049;-76
2022/09/23 02:04:45;;;;;;;36.67;21.17;;;8.80;99.90;;;;;;4992823;28;20057;-77
2022/09/23 02:07:26;;;;;;;37.22;21.40;;;8.80;99.90;;;;;;4993567;28;20046;-76
2022/09/23 02:10:06;;;;;;;39.28;21.48;;;8.70;99.90;;;;;;4993209;28;20131;-75
2022/09/23 02:12:34;;;;;;;34.97;20.85;;;8.80;99.90;;;;;;5008871;28;20072;-78
2022/09/23 02:15:08;;;;;;;37.85;21.88;;;8.70;99.90;;;;;;4993097;28;20062;-75
2022/09/23 02:17:43;;;;;;;38.85;22.55;;;8.70;99.90;;;;;;4993070;28;20121;-75
2022/09/23 02:20:14;;;;;;;38.78;22.27;;;8.70;99.90;;;;;;4993052;28;20053;-76
2022/09/23 02:23:11;;;;;;;40.55;22.73;;;8.60;99.90;;;;;;4991812;28;20422;-75
2022/09/23 02:26:15;;;;;;;37.13;21.58;;;8.60;99.90;;;;;;4991800;28;20173;-78
2022/09/23 02:28:56;;;;;;;43.70;22.52;;;8.50;99.90;;;;;;4992716;28;20054;-75
2022/09/23 02:31:42;;;;;;;42.28;22.92;;;8.60;99.90;;;;;;4992962;28;20092;-82
2022/09/23 02:34:44;;;;;;;41.15;22.75;;;8.50;99.90;;;;;;4992817;28;20046;-75
2022/09/23 02:37:22;;;;;;;40.40;22.80;;;8.40;99.90;;;;;;4964895;28;20376;-76
2022/09/23 02:40:07;;;;;;;43.63;22.50;;;8.40;99.90;;;;;;4992455;28;20054;-75
2022/09/23 02:42:54;;;;;;;43.28;22.88;;;8.40;99.90;;;;;;4991412;28;20089;-75
2022/09/23 02:45:19;;;;;;;;;;;8.30;99.90;;;;;;4993090;28;20050;-78
2022/09/23 02:47:51;;;;;;;38.43;22.03;;;8.30;99.90;;;;;;4992869;28;19922;-76
2022/09/23 02:50:17;;;;;;;45.13;22.70;;;8.30;99.90;;;;;;4994422;28;20053;-75
2022/09/23 02:52:45;;;;;;;37.03;22.20;;;8.20;99.90;;;;;;4996110;28;20102;-76
2022/09/23 02:55:14;;;;;;;40.03;23.20;;;8.30;99.90;;;;;;4996021;28;20042;-79
2022/09/23 02:57:39;;;;;;;39.70;22.35;;;8.30;99.90;;;;;;4995268;28;20046;-74
2022/09/23 03:00:06;;;;;;;43.03;22.88;;;8.30;99.90;;;;;;4995325;28;20046;-75
2022/09/23 03:02:40;;;;;;;42.60;23.17;;;8.30;99.90;;;;;;4994981;28;20076;-76
2022/09/23 03:05:23;;;;;;;45.40;24.00;;;8.30;99.90;;;;;;4979630;28;20095;-75
2022/09/23 03:08:13;;;;;;;39.53;22.48;;;8.30;99.90;;;;;;4996382;28;20085;-75
2022/09/23 03:11:03;;;;;;;43.28;23.33;;;8.30;99.90;;;;;;4996037;28;20053;-76
2022/09/23 03:13:38;;;;;;;39.53;23.02;;;8.30;99.90;;;;;;4996121;28;20550;-75
2022/09/23 03:16:43;;;;;;;47.25;23.70;;;8.30;99.90;;;;;;4995142;28;20058;-75
2022/09/23 03:19:32;;;;;;;43.53;23.25;;;8.30;99.90;;;;;;4995842;28;20050;-74
2022/09/23 03:22:06;;;;;;;42.03;22.08;;;8.20;99.90;;;;;;4995720;28;20085;-80
2022/09/23 03:24:34;;;;;;;41.38;23.95;;;8.20;99.90;;;;;;4996175;28;20060;-76
2022/09/23 03:27:04;;;;;;;40.75;22.90;;;8.20;99.90;;;;;;4995724;28;20049;-75
2022/09/23 03:29:31;;;;;;;41.28;22.95;;;8.20;99.90;;;;;;4995608;28;20509;-76
2022/09/23 03:31:58;;;;;;;41.75;23.25;;;8.20;99.90;;;;;;4994060;28;20506;-75
2022/09/23 03:34:30;;;;;;;45.85;23.77;;;8.20;99.90;;;;;;4994412;28;20062;-79
2022/09/23 03:37:07;;;;;;;40.55;23.23;;;8.20;99.90;;;;;;4995245;28;20133;-78
2022/09/23 03:39:41;;;;;;;46.47;24.13;;;8.10;99.90;;;;;;4995410;28;20043;-76
2022/09/23 03:42:12;;;;;;;47.58;24.83;;;8.10;99.90;;;;;;4995215;28;20106;-75
2022/09/23 03:44:45;;;;;;;44.40;24.35;;;8.10;99.90;;;;;;4996009;28;20446;-74
2022/09/23 03:47:13;;;;;;;47.95;23.83;;;8.10;99.90;;;;;;4995632;28;20042;-75
2022/09/23 03:49:41;;;;;;;42.10;23.73;;;8.10;99.90;;;;;;4995695;28;20133;-75
2022/09/23 03:52:07;;;;;;;50.42;24.73;;;8.00;99.90;;;;;;4993950;28;20129;-81
2022/09/23 03:54:33;;;;;;;45.42;24.30;;;8.00;99.90;;;;;;4995628;28;20050;-75
2022/09/23 03:57:00;;;;;;;54.03;26.38;;;8.00;99.90;;;;;;4993987;28;20101;-75
2022/09/23 03:59:29;;;;;;;42.45;24.08;;;8.00;99.90;;;;;;4993830;28;20046;-75
2022/09/23 04:01:55;;;;;;;48.40;24.92;;;7.90;99.90;;;;;;4994584;28;20100;-76
2022/09/23 04:04:21;;;;;;;46.03;25.10;;;7.90;99.90;;;;;;4994966;28;20047;-76
2022/09/23 04:06:46;;;;;;;45.97;24.98;;;8.00;99.90;;;;;;4994826;28;20050;-77
2022/09/23 04:09:12;;;;;;;48.70;24.70;;;8.00;99.90;;;;;;4993489;28;20080;-76
2022/09/23 04:11:38;;;;;;;47.97;23.00;;;8.00;99.90;;;;;;4994227;28;20049;-75
2022/09/23 04:14:04;;;;;;;54.72;25.55;;;8.00;99.90;;;;;;4993573;28;20501;-75
2022/09/23 04:16:30;;;;;;;52.78;24.67;;;8.00;99.90;;;;;;4994694;28;20053;-76
2022/09/23 04:18:56;;;;;;;49.45;24.33;;;8.10;99.90;;;;;;4993352;28;20468;-76
2022/09/23 04:21:21;;;;;;;48.15;24.20;;;8.10;99.90;;;;;;4994540;28;20050;-76
2022/09/23 04:23:47;;;;;;;48.40;24.27;;;8.10;99.90;;;;;;4994492;28;20038;-75
2022/09/23 04:26:13;;;;;;;49.05;24.48;;;8.10;99.90;;;;;;4977398;28;20471;-75
2022/09/23 04:28:40;;;;;;;46.28;23.60;;;8.10;99.90;;;;;;4994161;28;20517;-76
2022/09/23 04:31:06;;;;;;;43.60;24.98;;;8.10;99.90;;;;;;4994378;28;20082;-75
2022/09/23 04:33:33;;;;;;;47.88;24.55;;;8.10;99.90;;;;;;4976906;28;20046;-75
2022/09/23 04:35:59;;;;;;;46.93;24.97;;;8.10;99.90;;;;;;4994402;28;20054;-75
2022/09/23 04:38:25;;;;;;;47.25;24.60;;;8.10;99.90;;;;;;4960758;28;20054;-74
2022/09/23 04:40:50;;;;;;;46.50;23.75;;;8.10;99.90;;;;;;4994166;28;20149;-75
2022/09/23 04:43:16;;;;;;;44.22;23.70;;;8.10;99.90;;;;;;4993871;28;20058;-75
2022/09/23 04:45:43;;;;;;;45.08;23.98;;;8.10;99.90;;;;;;4994223;28;20054;-74
2022/09/23 04:48:11;;;;;;;46.85;23.88;;;8.10;99.90;;;;;;4977443;28;20121;-74
2022/09/23 04:50:37;;;;;;;51.08;24.98;;;8.10;99.90;;;;;;4976747;28;20550;-75
2022/09/23 04:53:03;;;;;;;44.67;24.20;;;8.10;99.90;;;;;;4993109;28;20474;-74
2022/09/23 04:55:29;;;;;;;50.15;24.80;;;8.10;99.90;;;;;;4992845;28;20089;-75
2022/09/23 04:57:55;;;;;;;48.30;24.63;;;8.10;99.90;;;;;;4994627;28;20458;-74
2022/09/23 05:00:22;;;;;;;53.08;23.98;;;8.10;99.90;;;;;;4993325;28;20104;-75
2022/09/23 05:02:49;;;;;;;46.17;24.73;;;8.10;99.90;;;;;;4994463;28;20089;-75
2022/09/23 05:05:19;;;;;;;;;;;8.10;99.90;;;;;;4994084;28;20058;-75
2022/09/23 05:07:44;;;;;;;44.95;23.60;;;8.10;99.90;;;;;;4994095;28;19972;-75
2022/09/23 05:10:10;;;;;;;44.53;23.50;;;8.10;99.90;;;;;;4992608;28;20136;-76
2022/09/23 05:12:36;;;;;;;46.05;25.25;;;8.10;99.90;;;;;;4992428;28;20116;-76
2022/09/23 05:15:02;;;;;;;46.70;24.65;;;8.00;99.90;;;;;;4993803;28;20050;-76
2022/09/23 05:17:29;;;;;;;49.28;25.58;;;8.00;99.90;;;;;;4992551;28;20133;-75
2022/09/23 05:19:56;;;;;;;48.20;25.88;;;8.00;99.90;;;;;;4993903;28;20504;-77
2022/09/23 05:22:21;;;;;;;47.53;24.70;;;8.00;99.90;;;;;;4976795;28;20122;-76
2022/09/23 05:24:47;;;;;;;47.58;24.00;;;8.00;99.90;;;;;;4993584;28;20122;-75
2022/09/23 05:27:13;;;;;;;49.97;25.33;;;8.00;99.90;;;;;;4993682;28;20044;-76
2022/09/23 05:29:39;;;;;;;51.75;26.35;;;7.90;99.90;;;;;;4993600;28;20489;-76
2022/09/23 05:32:04;;;;;;;48.85;25.40;;;7.80;99.90;;;;;;4977851;28;20090;-76
2022/09/23 05:34:31;;;;;;;50.35;25.95;;;7.80;99.90;;;;;;4995435;28;20050;-76
2022/09/23 05:36:57;;;;;;;44.90;25.38;;;7.80;99.90;;;;;;4996136;28;20193;-76
2022/09/23 05:39:22;;;;;;;51.55;25.50;;;7.80;99.90;;;;;;4995282;28;20062;-75
2022/09/23 05:41:48;;;;;;;48.13;24.98;;;7.90;99.90;;;;;;4995789;28;20134;-76
2022/09/23 05:44:14;;;;;;;48.28;25.30;;;7.90;99.90;;;;;;4995876;28;20062;-75
2022/09/23 05:46:40;;;;;;;45.35;24.48;;;7.90;99.90;;;;;;4995214;28;20391;-75
2022/09/23 05:49:06;;;;;;;49.60;24.98;;;7.90;99.90;;;;;;4994647;28;20048;-74
2022/09/23 05:51:33;;;;;;;47.22;24.73;;;7.90;99.90;;;;;;4995033;28;20046;-78
2022/09/23 05:54:01;;;;;;;44.47;23.73;;;8.00;99.90;;;;;;4994646;28;20101;-75
2022/09/23 05:56:28;;;;;;;46.03;24.27;;;8.00;99.90;;;;;;4994756;28;20046;-76
2022/09/23 05:58:56;;;;;;;47.85;24.00;;;8.10;99.90;;;;;;4994480;28;20133;-75
2022/09/23 06:01:26;;;;;;;52.55;25.80;;;8.10;99.90;;;;;;4996310;28;20050;-76
2022/09/23 06:03:54;;;;;;;49.63;24.00;;;8.30;99.90;;;;;;4977858;28;20089;-75
2022/09/23 06:06:35;;;;;;;47.10;23.42;;;8.20;99.90;;;;;;4995984;28;20054;-76
2022/09/23 06:09:01;;;;;;;44.65;24.27;;;8.30;99.90;;;;;;4996745;28;20070;-76
2022/09/23 06:11:32;;;;;;;42.00;22.23;;;8.40;99.90;;;;;;4997885;28;20053;-75
2022/09/23 06:13:59;;;;;;;48.03;24.63;;;8.50;99.90;;;;;;4996134;28;20090;-75
2022/09/23 06:16:26;;;;;;;46.70;23.73;;;8.50;99.90;;;;;;5001232;28;20054;-75
2022/09/23 06:18:52;;;;;;;43.05;23.45;;;8.60;99.90;;;;;;5000584;28;20098;-74
2022/09/23 06:21:18;;;;;;;47.28;23.10;;;8.70;99.90;;;;;;4997915;28;20077;-74
2022/09/23 06:23:44;;;;;;;43.40;22.60;;;8.80;99.90;;;;;;4997823;28;20050;-75
2022/09/23 06:26:13;;;;;;;48.00;23.37;;;8.90;99.90;;;;;;5006079;28;20038;-76
2022/09/23 06:28:41;;;;;;;47.95;22.17;;;9.00;99.90;;;;;;5002913;28;20281;-76
2022/09/23 06:31:13;;;;;;;41.78;21.35;;;9.20;99.90;;;;;;5002769;28;20109;-77
2022/09/23 06:33:43;;;;;;;48.95;23.15;;;9.30;99.90;;;;;;5001799;28;20046;-75
2022/09/23 06:36:11;;;;;;;42.65;21.77;;;9.30;99.90;;;;;;4999197;28;20486;-76
2022/09/23 06:38:43;;;;;;;;;;;9.40;99.90;;;;;;4999294;28;20065;-76
2022/09/23 06:41:10;;;;;;;41.40;22.70;;;9.40;99.90;;;;;;5000175;28;19921;-76
2022/09/23 06:43:36;;;;;;;40.92;21.65;;;9.60;99.90;;;;;;5000471;28;20093;-76
2022/09/23 06:46:03;;;;;;;39.45;20.98;;;9.50;99.90;;;;;;5000063;28;20494;-76
2022/09/23 06:48:33;;;;;;;44.53;21.38;;;9.60;99.90;;;;;;4999972;28;20050;-75
2022/09/23 06:51:01;;;;;;;39.92;21.73;;;9.60;99.90;;;;;;4999186;28;20054;-76
2022/09/23 06:53:30;;;;;;;40.90;21.42;;;9.70;99.90;;;;;;5001881;28;20092;-75
2022/09/23 06:56:10;;;;;;;41.47;20.55;;;9.70;99.90;;;;;;4998889;28;20054;-74
2022/09/23 06:58:37;;;;;;;42.20;20.88;;;9.80;99.90;;;;;;4998327;28;20364;-74
2022/09/23 07:01:05;;;;;;;39.58;20.52;;;9.80;99.90;;;;;;4999047;28;20046;-77
2022/09/23 07:03:32;;;;;;;43.17;21.67;;;9.90;99.90;;;;;;4999296;28;20057;-75
2022/09/23 07:05:59;;;;;;;41.07;20.77;;;9.90;99.90;;;;;;4998295;28;20050;-75
2022/09/23 07:08:26;;;;;;;41.25;21.52;;;10.00;99.90;;;;;;4998062;28;20437;-75
2022/09/23 07:10:56;;;;;;;36.85;20.23;;;10.10;99.90;;;;;;5000256;28;20045;-76
2022/09/23 07:13:22;;;;;;;37.45;20.38;;;10.00;99.90;;;;;;4999652;28;20050;-75
2022/09/23 07:15:53;;;;;;;39.30;20.05;;;10.20;99.90;;;;;;4998398;28;20078;-76
2022/09/23 07:18:22;;;;;;;40.17;20.52;;;10.30;99.90;;;;;;4982184;28;20054;-76
2022/09/23 07:20:48;;;;;;;38.65;20.10;;;10.40;99.90;;;;;;4997268;28;20121;-76
2022/09/23 07:23:16;;;;;;;39.03;19.90;;;10.40;99.90;;;;;;4996593;28;20065;-75
2022/09/23 07:25:45;;;;;;;36.90;19.40;;;10.50;99.90;;;;;;4997155;28;20058;-76
2022/09/23 07:28:12;;;;;;;34.05;19.33;;;10.60;99.90;;;;;;4996227;28;20076;-75
2022/09/23 07:30:39;;;;;;;42.47;19.67;;;10.60;99.90;;;;;;4997564;28;20038;-78
2022/09/23 07:33:05;;;;;;;33.63;19.20;;;10.70;99.90;;;;;;4997585;28;20531;-76
2022/09/23 07:35:32;;;;;;;31.83;18.60;;;10.80;99.90;;;;;;4998430;28;20425;-75
2022/09/23 07:37:59;;;;;;;34.45;19.08;;;10.80;99.90;;;;;;5001550;28;20050;-79
2022/09/23 07:40:25;;;;;;;37.33;19.02;;;10.90;99.90;;;;;;5008542;28;20099;-76
2022/09/23 07:42:50;;;;;;;41.95;20.40;;;11.00;99.90;;;;;;5003338;28;20101;-76
2022/09/23 07:45:17;;;;;;;36.10;19.05;;;11.10;99.90;;;;;;4999319;28;20108;-76
2022/09/23 07:47:42;;;;;;;34.45;18.35;;;11.20;99.90;;;;;;4999874;28;20050;-76
2022/09/23 07:50:12;;;;;;;42.10;19.70;;;11.30;99.90;;;;;;4999034;28;20050;-75
2022/09/23 07:52:38;;;;;;;34.08;18.67;;;11.40;99.90;;;;;;4997839;28;20049;-75
2022/09/23 07:55:05;;;;;;;34.50;19.17;;;11.40;99.90;;;;;;4997503;28;20054;-76
2022/09/23 07:57:31;;;;;;;;;;;11.50;99.90;;;;;;4982349;28;20188;-76
2022/09/23 07:59:57;;;;;;;35.92;18.58;;;11.60;99.90;;;;;;4997719;28;19922;-76
2022/09/23 08:02:23;;;;;;;36.10;19.60;;;11.70;99.90;;;;;;4998315;28;20125;-76
2022/09/23 08:04:49;;;;;;;36.30;19.33;;;11.70;99.90;;;;;;4982013;28;20149;-75
2022/09/23 08:07:15;;;;;;;38.15;18.83;;;11.80;99.90;;;;;;4997865;28;20124;-75
2022/09/23 08:09:42;;;;;;;38.00;19.15;;;11.80;99.90;;;;;;4997207;28;20043;-78
2022/09/23 08:12:10;;;;;;;35.13;19.35;;;12.00;99.90;;;;;;4996573;28;20073;-75
2022/09/23 08:14:37;;;;;;;35.78;19.23;;;12.10;99.90;;;;;;4998073;28;20062;-74
2022/09/23 08:17:03;;;;;;;32.55;17.77;;;12.20;99.90;;;;;;4996715;28;20050;-76
2022/09/23 08:19:29;;;;;;;35.33;17.00;;;12.20;99.90;;;;;;4995053;28;20080;-75
2022/09/23 08:21:56;;;;;;;35.05;18.17;;;12.30;99.90;;;;;;4962926;28;20050;-75
2022/09/23 08:24:23;;;;;;;31.48;17.15;;;12.40;99.90;;;;;;4994946;28;20081;-75
2022/09/23 08:26:53;;;;;;;32.65;17.08;;;12.50;99.90;;;;;;4996652;28;20054;-76
2022/09/23 08:29:21;;;;;;;33.92;17.30;;;12.50;99.90;;;;;;4996592;28;20125;-75
2022/09/23 08:31:48;;;;;;;34.80;17.80;;;12.60;99.90;;;;;;4996548;28;20073;-75
2022/09/23 08:34:16;;;;;;;31.08;16.90;;;12.70;99.90;;;;;;4995405;28;20046;-76
2022/09/23 08:36:42;;;;;;;28.67;16.70;;;12.70;99.90;;;;;;4996147;28;20050;-76
2022/09/23 08:39:12;;;;;;;30.90;17.02;;;12.70;99.90;;;;;;4979363;28;20056;-76
2022/09/23 08:41:59;;;;;;;31.77;17.30;;;12.80;99.90;;;;;;4996965;28;20394;-75
2022/09/23 08:44:48;;;;;;;31.90;16.38;;;12.90;99.90;;;;;;4996878;28;20058;-76
2022/09/23 08:47:16;;;;;;;37.15;18.02;;;12.90;99.90;;;;;;4996190;28;20144;-76
2022/09/23 08:49:57;;;;;;;29.17;16.90;;;13.00;99.90;;;;;;4996332;28;20129;-74
2022/09/23 08:52:34;;;;;;;33.53;16.73;;;13.10;99.90;;;;;;4994527;28;20093;-74
2022/09/23 08:55:02;;;;;;;33.33;16.70;;;13.20;99.90;;;;;;4995952;28;20094;-76
2022/09/23 08:57:41;;;;;;;30.88;17.45;;;13.30;99.90;;;;;;4995713;28;20526;-75
2022/09/23 09:00:20;;;;;;;30.58;17.88;;;13.40;99.90;;;;;;4994624;28;20054;-77
2022/09/23 09:02:50;;;;;;;29.23;17.45;;;13.60;99.90;;;;;;4995725;28;20050;-75
2022/09/23 09:05:22;;;;;;;32.78;17.50;;;13.80;99.90;;;;;;4994858;28;20493;-79
2022/09/23 09:07:48;;;;;;;30.95;17.75;;;13.80;99.90;;;;;;4995098;28;20085;-76
2022/09/23 09:10:23;;;;;;;32.30;16.90;;;13.90;99.90;;;;;;4961395;28;20046;-76
2022/09/23 09:13:15;;;;;;;31.42;18.38;;;13.90;99.90;;;;;;4977437;28;20692;-76
2022/09/23 09:16:06;;;;;;;31.20;17.67;;;14.00;99.90;;;;;;4993906;28;20482;-76
2022/09/23 09:18:35;;;;;;;31.13;18.63;;;14.10;99.90;;;;;;4994066;28;20398;-75
2022/09/23 09:21:10;;;;;;;30.55;17.80;;;14.20;99.90;;;;;;4976376;28;20042;-75
2022/09/23 09:23:47;;;;;;;31.35;17.63;;;14.30;99.90;;;;;;4992557;28;20133;-75
2022/09/23 09:26:27;;;;;;;34.63;17.85;;;14.20;99.90;;;;;;4993844;28;20050;-76
2022/09/23 09:29:01;;;;;;;34.03;17.25;;;14.30;99.90;;;;;;4993536;28;20497;-77
2022/09/23 09:31:47;;;;;;;29.00;17.42;;;14.50;99.90;;;;;;4976481;28;20050;-75
2022/09/23 09:34:35;;;;;;;28.23;17.35;;;14.50;99.90;;;;;;4975998;28;20137;-75
2022/09/23 09:37:15;;;;;;;33.95;17.20;;;14.50;99.90;;;;;;4992523;28;20049;-79
2022/09/23 09:39:41;;;;;;;31.15;17.85;;;14.60;99.90;;;;;;4992336;28;20050;-75
2022/09/23 09:42:14;;;;;;;30.67;17.08;;;14.80;99.90;;;;;;4992958;28;20062;-82
2022/09/23 09:44:48;;;;;;;30.73;16.90;;;14.90;99.90;;;;;;4992335;28;20082;-79
2022/09/23 09:47:39;;;;;;;29.40;16.33;;;15.00;99.90;;;;;;4991851;28;20435;-76
2022/09/23 09:50:25;;;;;;;29.80;16.48;;;15.20;99.90;;;;;;4993590;28;20076;-76
2022/09/23 09:53:12;;;;;;;29.67;16.13;;;15.30;99.90;;;;;;4994004;28;20046;-76
2022/09/23 09:55:38;;;;;;;28.73;16.45;;;15.40;99.90;;;;;;4993299;28;20054;-76
2022/09/23 09:58:04;;;;;;;31.83;15.60;;;15.40;99.90;;;;;;4993949;28;20215;-76
2022/09/23 10:00:30;;;;;;;25.40;15.38;;;15.40;99.90;;;;;;4995621;28;20193;-75
2022/09/23 10:03:22;;;;;;;30.45;15.68;;;15.50;99.90;;;;;;4996911;28;20141;-76
2022/09/23 10:05:51;;;;;;;26.42;16.92;;;15.40;99.90;;;;;;4994547;28;20056;-76
2022/09/23 10:08:33;;;;;;;30.40;16.48;;;15.30;99.90;;;;;;4995888;28;20057;-76
2022/09/23 10:11:17;;;;;;;30.77;17.23;;;15.30;99.90;;;;;;4996234;28;20062;-76
2022/09/23 10:14:18;;;;;;;30.60;15.63;;;15.20;99.90;;;;;;4997048;28;20125;-80
2022/09/23 10:16:47;;;;;;;28.25;16.05;;;15.20;99.90;;;;;;4985171;28;20054;-76
2022/09/23 10:19:28;;;;;;;28.08;16.38;;;15.20;99.90;;;;;;4995977;28;20089;-78
2022/09/23 10:22:00;;;;;;;32.90;15.63;;;15.30;99.90;;;;;;4995538;28;20085;-76
2022/09/23 10:24:29;;;;;;;27.92;15.13;;;15.30;99.90;;;;;;4996068;28;20457;-76
2022/09/23 10:27:00;;;;;;;26.10;15.82;;;15.40;99.90;;;;;;4979654;28;20464;-76
2022/09/23 10:29:37;;;;;;;28.52;14.60;;;15.50;99.90;;;;;;4996680;28;20449;-76
2022/09/23 10:32:24;;;;;;;23.35;14.38;;;15.60;99.90;;;;;;4995631;28;20089;-80
2022/09/23 10:35:08;;;;;;;27.40;14.82;;;15.70;99.90;;;;;;4996900;28;20050;-76
2022/09/23 10:37:38;;;;;;;31.60;14.98;;;15.80;99.90;;;;;;4995394;28;20073;-74
2022/09/23 10:46:44;;;;;;;30.08;15.57;;;16.30;99.90;;;;;;4996263;28;20062;-76
2022/09/23 10:49:32;;;;;;;28.33;16.38;;;16.40;99.90;;;;;;4995443;28;20137;-76
2022/09/23 10:52:37;;;;;;;26.90;15.50;;;16.50;99.90;;;;;;4996390;28;20043;-75
2022/09/23 10:55:30;;;;;;;26.92;14.45;;;16.60;99.90;;;;;;4995496;28;20093;-76
2022/09/23 10:58:23;;;;;;;31.00;15.45;;;16.70;99.90;;;;;;4995424;28;20046;-76
2022/09/23 11:01:01;;;;;;;31.15;15.27;;;16.70;99.90;;;;;;4995623;28;20058;-75
2022/09/23 11:04:00;;;;;;;26.63;15.30;;;16.60;99.90;;;;;;4995584;28;20050;-75
2022/09/23 11:06:45;;;;;;;28.42;15.52;;;16.70;99.90;;;;;;4996402;28;20125;-76
2022/09/23 11:09:46;;;;;;;29.55;15.60;;;16.60;99.90;;;;;;4978935;28;20060;-76
2022/09/23 11:12:43;;;;;;;29.83;15.30;;;16.40;99.90;;;;;;4992574;28;20628;-76
2022/09/23 11:15:56;;;;;;;24.75;13.63;;;16.70;99.90;;;;;;4996069;28;20176;-77
2022/09/23 11:18:30;;;;;;;24.67;14.48;;;16.70;99.90;;;;;;4993321;28;20097;-76
2022/09/23 11:21:33;;;;;;;29.60;14.05;;;16.80;99.90;;;;;;4995973;28;20050;-75
2022/09/23 11:24:00;;;;;;;25.15;13.30;;;16.80;99.90;;;;;;4994538;28;20046;-75
2022/09/23 11:26:43;;;;;;;25.00;13.35;;;16.90;99.90;;;;;;4995499;28;20057;-76
2022/09/23 11:29:41;;;;;;;23.48;13.15;;;16.90;99.90;;;;;;4995962;28;20470;-75
2022/09/23 11:32:37;;;;;;;26.30;13.65;;;16.90;99.90;;;;;;4987133;28;20141;-77
2022/09/23 11:35:32;;;;;;;27.83;13.50;;;17.00;99.90;;;;;;4997132;28;20057;-76
2022/09/23 11:38:23;;;;;;;26.00;14.05;;;17.00;99.90;;;;;;4996588;28;20344;-76
2022/09/23 11:41:02;;;;;;;22.13;12.82;;;17.00;99.90;;;;;;4995850;28;20046;-76
2022/09/23 11:43:34;;;;;;;28.25;13.98;;;17.10;99.90;;;;;;4995321;28;20054;-76
2022/09/23 11:46:09;;;;;;;24.55;13.43;;;17.00;99.90;;;;;;4979311;28;20137;-76
2022/09/23 11:49:28;;;;;;;27.02;14.25;;;17.10;99.90;;;;;;4993941;28;20505;-76
2022/09/23 11:52:18;;;;;;;28.33;14.98;;;17.10;99.90;;;;;;4993646;28;20062;-77
2022/09/23 11:54:59;;;;;;;26.30;14.23;;;17.10;99.90;;;;;;4995406;28;20421;-77
2022/09/23 11:57:41;;;;;;;25.75;14.13;;;17.00;99.90;;;;;;4993994;28;20092;-76
2022/09/23 12:00:43;;;;;;;30.95;15.63;;;17.10;99.90;;;;;;4994183;28;20082;-75
2022/09/23 12:03:32;;;;;;;26.65;15.38;;;17.10;99.90;;;;;;4994181;28;20060;-76
2022/09/23 12:06:42;;;;;;;25.77;15.35;;;17.10;99.90;;;;;;4994418;28;20050;-79
2022/09/23 12:09:38;;;;;;;30.92;15.68;;;17.10;99.90;;;;;;4993740;28;20133;-75
2022/09/23 12:12:15;;;;;;;28.05;14.93;;;17.10;99.90;;;;;;4993157;28;20066;-77
2022/09/23 12:15:18;;;;;;;25.30;14.57;;;17.10;99.90;;;;;;4994234;28;20046;-76
2022/09/23 12:18:02;;;;;;;26.65;13.98;;;17.10;99.90;;;;;;4992773;28;20141;-76
2022/09/23 12:20:36;;;;;;;25.50;13.73;;;17.20;99.90;;;;;;4994021;28;20082;-76
2022/09/23 12:23:28;;;;;;;26.10;13.77;;;17.10;99.90;;;;;;4994787;28;20445;-75
2022/09/23 12:26:00;;;;;;;25.20;12.50;;;16.90;99.90;;;;;;4995290;28;20073;-75
2022/09/23 12:28:39;;;;;;;21.73;11.95;;;17.00;99.90;;;;;;4995172;28;20110;-77
2022/09/23 12:31:10;;;;;;;21.40;10.55;;;17.20;99.90;;;;;;4993643;28;20080;-76
2022/09/23 12:33:37;;;;;;;19.10;10.85;;;17.10;99.90;;;;;;4993393;28;20097;-76
2022/09/23 12:36:08;;;;;;;22.80;12.98;;;17.10;99.90;;;;;;4994664;28;20054;-76
2022/09/23 12:38:39;;;;;;;25.27;12.13;;;17.10;99.90;;;;;;4994399;28;20053;-76
2022/09/23 12:41:27;;;;;;;17.95;10.25;;;17.00;99.90;;;;;;4994409;28;20042;-76
2022/09/23 12:44:12;;;;;;;20.70;10.27;;;16.80;99.90;;;;;;4995467;28;20374;-76
2022/09/23 12:46:42;;;;;;;23.13;11.35;;;16.80;99.90;;;;;;4994467;28;20054;-77
2022/09/23 12:49:26;;;;;;;23.98;10.45;;;16.80;99.90;;;;;;4994673;28;20064;-76
2022/09/23 12:52:11;;;;;;;19.33;11.48;;;16.90;99.90;;;;;;4994138;28;20351;-76
2022/09/23 12:54:38;;;;;;;21.00;10.40;;;16.90;99.90;;;;;;4993227;28;20046;-76
2022/09/23 12:57:12;;;;;;;21.17;11.05;;;16.90;99.90;;;;;;4994314;28;20060;-76
2022/09/23 12:59:57;;;;;;;21.23;10.77;;;16.90;99.90;;;;;;4992892;28;20093;-76
2022/09/23 13:02:30;;;;;;;24.20;11.33;;;16.90;99.90;;;;;;4993205;28;20042;-77
2022/09/23 13:08:03;;;;;;;23.30;10.20;;;16.90;99.90;;;;;;4994065;28;20359;-75
2022/09/23 13:10:54;;;;;;;24.10;10.70;;;17.00;99.90;;;;;;4994812;28;20344;-84
2022/09/23 13:13:30;;;;;;;19.98;10.98;;;17.10;99.90;;;;;;4993086;28;20100;-77
2022/09/23 13:16:20;;;;;;;22.27;9.68;;;17.10;99.90;;;;;;4992885;28;20078;-77
2022/09/23 13:18:50;;;;;;;21.13;10.38;;;17.10;99.90;;;;;;4994684;28;20054;-76